EGJA/ACI METAR and TAF weather

Enter ICAO airport designator
Station Type Date Time Source
EGJA METAR 2019/02/16 19:20 UTC NOAA

EGJA 161920Z 13008KT CAVOK 09/08 Q1021


Station Type Date Time Source
EGJA Decoded METAR 2019/02/16 19:20 UTC NOAA

Alderney / Channel Island, United Kingdom (EGJA) 49-43N 002-12W
Feb 16, 2019 - 02:20 PM EST / 2019.02.16 1920 UTC
Wind: from the SE (130 degrees) at 9 MPH (8 KT):0
Visibility: greater than 7 mile(s):0
Temperature: 48 F (9 C)
Dew Point: 46 F (8 C)
Relative Humidity: 93%
Pressure (altimeter): 30.15 in. Hg (1021 hPa)
ob: EGJA 161920Z 13008KT CAVOK 09/08 Q1021
cycle: 19

Station Type Date Time Source
EGJA TAF UTC NOAA

Error!


Example: see airport list